createdAt,value
2022-08-22T00:01:45.963Z,101651.97
2022-08-22T00:03:00.352Z,101673.31
2022-08-22T00:04:21.235Z,101650.28
2022-08-22T00:06:57.405Z,101650.28
2022-08-22T00:09:45.431Z,101660.28
2022-08-22T00:12:24.798Z,101658.38
2022-08-22T00:15:03.582Z,101653.88
2022-08-22T00:17:40.109Z,101659.56
2022-08-22T00:20:18.969Z,101662.66
2022-08-22T00:22:50.685Z,101664.66
2022-08-22T00:25:25.546Z,101656.25
2022-08-22T00:28:07.389Z,101661.22
2022-08-22T00:30:49.552Z,101669.41
2022-08-22T00:33:30.537Z,101671.94
2022-08-22T00:36:10.850Z,101666.22
2022-08-22T00:38:50.002Z,101672.75
2022-08-22T00:41:34.293Z,101670.25
2022-08-22T00:44:33.809Z,101668.00
2022-08-22T00:47:36.246Z,101673.69
2022-08-22T00:50:27.430Z,101680.25
2022-08-22T00:53:11.779Z,101682.16
2022-08-22T00:55:59.061Z,101674.78
2022-08-22T00:58:45.338Z,101676.94
2022-08-22T01:01:16.948Z,101676.94
2022-08-22T01:03:53.346Z,101673.59
2022-08-22T01:06:44.873Z,101674.88
2022-08-22T01:09:11.228Z,101679.75
2022-08-22T01:12:01.157Z,101671.19
2022-08-22T01:14:49.106Z,101679.41
2022-08-22T01:17:33.757Z,101683.22
2022-08-22T01:20:29.333Z,101679.66
2022-08-22T01:23:01.402Z,101675.22
2022-08-22T01:26:05.489Z,101670.00
2022-08-22T01:29:03.033Z,101671.91
2022-08-22T01:31:57.802Z,101670.25
2022-08-22T01:34:58.069Z,101670.47
2022-08-22T01:37:59.501Z,101670.72
2022-08-22T01:40:54.167Z,101669.06
2022-08-22T01:43:51.339Z,101681.28
2022-08-22T01:46:43.993Z,101675.72
2022-08-22T01:49:23.625Z,101676.41
2022-08-22T01:52:05.319Z,101677.94
2022-08-22T01:54:50.610Z,101672.13
2022-08-22T01:57:19.175Z,101673.66
2022-08-22T01:59:51.412Z,101674.69
2022-08-22T02:02:45.873Z,101670.28
2022-08-22T02:05:31.682Z,101678.72
2022-08-22T02:08:14.066Z,101672.66
2022-08-22T02:11:04.617Z,101676.44
2022-08-22T02:13:57.826Z,101666.59
2022-08-22T02:16:41.156Z,101666.34
2022-08-22T02:19:16.498Z,101674.53
2022-08-22T02:22:06.151Z,101672.66
2022-08-22T02:24:51.305Z,101674.53
2022-08-22T02:27:31.743Z,101671.00
2022-08-22T02:30:05.493Z,101658.41
2022-08-22T02:32:40.810Z,101667.66
2022-08-22T02:35:14.255Z,101660.53
2022-08-22T02:38:13.717Z,101652.81
2022-08-22T02:41:18.517Z,101656.38
2022-08-22T02:44:01.492Z,101648.19
2022-08-22T02:46:30.801Z,101648.41
2022-08-22T02:49:20.617Z,101651.13
2022-08-22T02:52:03.428Z,101657.66
2022-08-22T02:54:47.202Z,101657.91
2022-08-22T02:57:30.014Z,101652.09
2022-08-22T03:00:31.240Z,101649.09
2022-08-22T03:03:16.570Z,101661.94
2022-08-22T03:06:00.861Z,101651.25
2022-08-22T03:08:42.860Z,101651.47
2022-08-22T03:11:27.146Z,101646.84
2022-08-22T03:14:01.304Z,101647.06
2022-08-22T03:16:40.429Z,101653.81
2022-08-22T03:19:24.820Z,101648.63
2022-08-22T03:22:02.582Z,101639.59
2022-08-22T03:24:48.754Z,101633.31
2022-08-22T03:27:32.744Z,101633.31
2022-08-22T03:30:11.065Z,101627.00
2022-08-22T03:32:58.954Z,101626.41
2022-08-22T03:35:34.440Z,101617.38
2022-08-22T03:38:18.248Z,101615.72
2022-08-22T03:41:23.752Z,101618.66
2022-08-22T03:44:30.473Z,101622.25
2022-08-22T03:47:10.467Z,101617.84
2022-08-22T03:49:58.911Z,101614.97
2022-08-22T03:53:10.289Z,101614.53
2022-08-22T03:56:26.598Z,101613.56
2022-08-22T03:59:14.189Z,101613.13
2022-08-22T04:01:53.371Z,101611.22
2022-08-22T04:04:36.521Z,101610.16
2022-08-22T04:07:35.188Z,101603.63
2022-08-22T04:10:28.673Z,101607.41
2022-08-22T04:13:04.154Z,101605.53
2022-08-22T04:16:06.635Z,101607.41
2022-08-22T04:19:11.001Z,101619.78
2022-08-22T04:21:57.231Z,101620.59
2022-08-22T04:24:42.969Z,101622.50
2022-08-22T04:27:18.132Z,101622.00
2022-08-22T04:29:58.215Z,101629.84
2022-08-22T04:33:06.839Z,101618.34
2022-08-22T04:35:44.417Z,101620.53
2022-08-22T04:38:22.498Z,101621.84
2022-08-22T04:41:01.352Z,101621.38
2022-08-22T04:43:38.350Z,101617.97
2022-08-22T04:46:54.318Z,101628.88
2022-08-22T04:49:32.558Z,101632.44
2022-08-22T04:52:29.605Z,101645.00
2022-08-22T04:55:08.509Z,101640.63
2022-08-22T04:57:49.825Z,101644.75
2022-08-22T05:00:17.652Z,101647.88
2022-08-22T05:02:50.672Z,101650.16
2022-08-22T05:05:23.465Z,101650.75
2022-08-22T05:07:57.153Z,101658.69
2022-08-22T05:10:28.510Z,101654.69
2022-08-22T05:13:01.067Z,101651.97
2022-08-22T05:15:33.571Z,101646.63
2022-08-22T05:18:07.698Z,101656.72
2022-08-22T05:20:36.183Z,101664.66
2022-08-22T05:23:17.075Z,101664.28
2022-08-22T05:25:48.549Z,101666.81
2022-08-22T05:28:24.057Z,101673.09
2022-08-22T05:30:51.372Z,101671.19
2022-08-22T05:33:41.639Z,101677.25
2022-08-22T05:36:33.367Z,101675.59
2022-08-22T05:39:11.575Z,101676.41
2022-08-22T05:41:39.282Z,101675.00
2022-08-22T05:44:18.145Z,101681.50
2022-08-22T05:46:49.913Z,101678.63
2022-08-22T05:49:16.259Z,101668.19
2022-08-22T05:52:04.171Z,101678.06
2022-08-22T05:54:37.867Z,101679.72
2022-08-22T05:57:38.647Z,101684.72
2022-08-22T06:00:22.418Z,101691.38
2022-08-22T06:03:11.316Z,101692.78
2022-08-22T06:05:42.517Z,101695.53
2022-08-22T06:08:21.247Z,101694.09
2022-08-22T06:10:53.229Z,101692.22
2022-08-22T06:13:34.770Z,101694.94
2022-08-22T06:16:13.420Z,101696.84
2022-08-22T06:18:43.297Z,101695.97
2022-08-22T06:21:24.069Z,101694.69
2022-08-22T06:23:57.559Z,101698.03
2022-08-22T06:26:34.478Z,101694.44
2022-08-22T06:29:02.742Z,101694.00
2022-08-22T06:31:34.434Z,101694.81
2022-08-22T06:34:03.771Z,101692.91
2022-08-22T06:36:34.228Z,101691.50
2022-08-22T06:39:12.972Z,101697.88
2022-08-22T06:41:47.612Z,101689.09
2022-08-22T06:44:18.868Z,101691.59
2022-08-22T06:46:48.425Z,101691.91
2022-08-22T06:49:15.920Z,101700.34
2022-08-22T06:51:43.733Z,101700.81
2022-08-22T06:54:19.213Z,101698.31
2022-08-22T06:56:48.956Z,101706.25
2022-08-22T06:59:21.097Z,101706.19
2022-08-22T07:01:52.435Z,101710.13
2022-08-22T07:04:26.569Z,101707.53
2022-08-22T07:06:56.223Z,101703.84
2022-08-22T07:09:30.479Z,101694.38
2022-08-22T07:12:02.934Z,101695.56
2022-08-22T07:14:38.423Z,101688.91
2022-08-22T07:17:10.506Z,101696.41
2022-08-22T07:19:41.522Z,101677.22
2022-08-22T07:22:17.034Z,101678.16
2022-08-22T07:24:48.388Z,101686.59
2022-08-22T07:27:48.826Z,101679.00
2022-08-22T07:30:27.451Z,101681.06
2022-08-22T07:32:57.755Z,101675.72
2022-08-22T07:35:54.013Z,101672.25
2022-08-22T07:38:30.869Z,101664.53
2022-08-22T07:41:13.017Z,101658.13
2022-08-22T07:44:05.478Z,101653.38
2022-08-22T07:46:37.477Z,101646.97
2022-08-22T07:49:26.140Z,101640.78
2022-08-22T07:51:58.768Z,101641.50
2022-08-22T07:54:36.344Z,101639.34
2022-08-22T07:57:11.047Z,101650.91
2022-08-22T07:59:42.864Z,101651.59
2022-08-22T08:02:12.908Z,101648.28
2022-08-22T08:04:41.265Z,101653.28
2022-08-22T08:07:11.920Z,101648.50
2022-08-22T08:09:46.861Z,101648.50
2022-08-22T08:12:14.683Z,101648.88
2022-08-22T08:14:45.481Z,101642.16
2022-08-22T08:17:34.330Z,101641.63
2022-08-22T08:20:08.613Z,101645.75
2022-08-22T08:22:37.386Z,101646.00
2022-08-22T08:25:05.838Z,101646.81
2022-08-22T08:27:56.172Z,101649.00
2022-08-22T08:30:36.525Z,101648.75
2022-08-22T08:33:26.182Z,101654.47
2022-08-22T08:36:26.360Z,101652.66
2022-08-22T08:39:02.590Z,101644.53
2022-08-22T08:42:01.769Z,101652.88
2022-08-22T08:44:46.882Z,101654.88
2022-08-22T08:47:39.773Z,101653.56
2022-08-22T08:50:21.493Z,101658.28
2022-08-22T08:52:52.937Z,101654.13
2022-08-22T08:55:51.049Z,101652.31
2022-08-22T08:58:33.565Z,101652.41
2022-08-22T09:01:19.516Z,101656.56
2022-08-22T09:04:21.010Z,101655.59
2022-08-22T09:07:35.450Z,101655.84
2022-08-22T09:10:20.870Z,101651.53
2022-08-22T09:13:29.600Z,101646.75
2022-08-22T09:16:36.592Z,101648.75
2022-08-22T09:19:29.769Z,101638.63
2022-08-22T09:22:25.120Z,101641.69
2022-08-22T09:24:57.180Z,101637.31
2022-08-22T09:27:56.070Z,101641.56
2022-08-22T09:30:28.793Z,101645.97
2022-08-22T09:33:21.382Z,101639.88
2022-08-22T09:36:05.081Z,101630.38
2022-08-22T09:39:17.570Z,101629.88
2022-08-22T09:42:17.472Z,101619.44
2022-08-22T09:45:17.448Z,101616.53
2022-08-22T09:48:14.640Z,101612.78
2022-08-22T09:50:52.719Z,101614.53
2022-08-22T09:53:55.893Z,101614.63
2022-08-22T09:56:58.208Z,101614.38
2022-08-22T09:59:50.738Z,101610.56
2022-08-22T10:02:53.858Z,101613.09
2022-08-22T10:05:40.310Z,101609.72
2022-08-22T10:08:19.629Z,101601.41
2022-08-22T10:10:58.656Z,101606.81
2022-08-22T10:14:00.462Z,101600.50
2022-08-22T10:17:02.321Z,101599.41
2022-08-22T10:19:38.131Z,101594.00
2022-08-22T10:22:32.555Z,101598.00
2022-08-22T10:25:18.526Z,101596.25
2022-08-22T10:27:56.033Z,101603.63
2022-08-22T10:31:06.036Z,101589.38
2022-08-22T10:33:39.933Z,101593.50
2022-08-22T10:36:12.886Z,101587.28
2022-08-22T10:38:54.629Z,101593.50
2022-08-22T10:41:36.652Z,101591.50
2022-08-22T10:44:04.033Z,101590.47
2022-08-22T10:46:42.245Z,101597.16
2022-08-22T10:49:22.569Z,101595.88
2022-08-22T10:52:18.526Z,101587.28
2022-08-22T10:54:56.339Z,101590.34
2022-08-22T10:57:37.290Z,101592.22
2022-08-22T11:00:26.993Z,101590.78
2022-08-22T11:03:25.689Z,101591.88
2022-08-22T11:05:58.023Z,101590.63
2022-08-22T11:08:34.605Z,101596.09
2022-08-22T11:11:25.772Z,101590.34
2022-08-22T11:14:30.142Z,101590.28
2022-08-22T11:17:29.899Z,101590.47
2022-08-22T11:20:25.104Z,101590.56
2022-08-22T11:23:06.775Z,101576.63
2022-08-22T11:25:52.428Z,101579.22
2022-08-22T11:28:37.639Z,101577.03
2022-08-22T11:31:17.034Z,101579.25
2022-08-22T11:33:55.274Z,101574.41
2022-08-22T11:37:03.972Z,101577.94
2022-08-22T11:39:47.170Z,101576.47
2022-08-22T11:42:31.509Z,101576.69
2022-08-22T11:45:04.538Z,101582.19
2022-08-22T11:48:00.461Z,101586.53
2022-08-22T11:50:38.665Z,101589.19
2022-08-22T11:53:33.990Z,101583.13
2022-08-22T11:56:10.469Z,101581.50
2022-08-22T11:59:23.733Z,101580.13
2022-08-22T12:02:08.967Z,101585.09
2022-08-22T12:04:44.490Z,101585.09
2022-08-22T12:07:17.573Z,101579.94
2022-08-22T12:10:02.202Z,101576.38
2022-08-22T12:12:37.648Z,101570.09
2022-08-22T12:15:37.393Z,101566.59
2022-08-22T12:18:30.870Z,101569.00
2022-08-22T12:21:12.725Z,101562.44
2022-08-22T12:23:49.012Z,101560.28
2022-08-22T12:26:43.923Z,101557.84
2022-08-22T12:29:33.994Z,101560.06
2022-08-22T12:32:45.775Z,101553.84
2022-08-22T12:35:39.371Z,101556.09
2022-08-22T12:38:28.549Z,101541.72
2022-08-22T12:41:13.997Z,101546.59
2022-08-22T12:44:21.619Z,101540.00
2022-08-22T12:47:10.449Z,101531.78
2022-08-22T12:49:55.945Z,101538.94
2022-08-22T12:52:52.238Z,101527.69
2022-08-22T12:55:33.114Z,101534.75
2022-08-22T12:58:38.177Z,101526.47
2022-08-22T13:01:07.439Z,101528.63
2022-08-22T13:03:42.125Z,101527.28
2022-08-22T13:06:48.877Z,101532.81
2022-08-22T13:09:28.708Z,101532.09
2022-08-22T13:12:15.630Z,101517.25
2022-08-22T13:14:52.323Z,101523.34
2022-08-22T13:17:25.063Z,101534.81
2022-08-22T13:19:59.002Z,101525.97
2022-08-22T13:22:29.577Z,101530.31
2022-08-22T13:25:16.175Z,101518.44
2022-08-22T13:27:56.142Z,101527.13
2022-08-22T13:30:37.590Z,101513.94
2022-08-22T13:33:12.440Z,101511.22
2022-08-22T13:35:42.241Z,101516.81
2022-08-22T13:38:17.423Z,101505.13
2022-08-22T13:40:53.968Z,101505.94
2022-08-22T13:43:33.776Z,101509.47
2022-08-22T13:46:03.465Z,101497.41
2022-08-22T13:48:50.528Z,101498.19
2022-08-22T13:51:31.273Z,101491.81
2022-08-22T13:54:11.266Z,101503.56
2022-08-22T13:56:57.056Z,101493.94
2022-08-22T13:59:51.671Z,101491.19
2022-08-22T14:02:37.489Z,101490.88
2022-08-22T14:05:13.241Z,101490.31
2022-08-22T14:07:57.036Z,101485.19
2022-08-22T14:10:30.303Z,101489.13
2022-08-22T14:12:57.392Z,101488.69
2022-08-22T14:15:44.767Z,101483.28
2022-08-22T14:18:31.537Z,101486.66
2022-08-22T14:21:27.806Z,101486.09
2022-08-22T14:24:00.037Z,101486.94
2022-08-22T14:26:33.162Z,101487.22
2022-08-22T14:29:11.537Z,101489.44
2022-08-22T14:31:38.292Z,101491.53
2022-08-22T14:34:10.390Z,101488.69
2022-08-22T14:36:56.210Z,101481.28
2022-08-22T14:39:36.912Z,101480.28
2022-08-22T14:42:15.514Z,101478.97
2022-08-22T14:45:06.675Z,101478.47
2022-08-22T14:48:29.242Z,101475.72
2022-08-22T14:50:37.329Z,101471.88
2022-08-22T14:53:25.226Z,101467.78
2022-08-22T14:55:56.918Z,101470.53
2022-08-22T14:58:26.364Z,101470.84
2022-08-22T15:00:56.308Z,101477.44
2022-08-22T15:03:32.253Z,101471.13
2022-08-22T15:06:05.092Z,101472.78
2022-08-22T15:08:36.061Z,101468.63
2022-08-22T15:11:27.082Z,101463.41
2022-08-22T15:14:12.560Z,101464.25
2022-08-22T15:16:50.834Z,101466.44
2022-08-22T15:19:35.335Z,101463.13
2022-08-22T15:22:14.811Z,101458.22
2022-08-22T15:25:03.746Z,101448.34
2022-08-22T15:27:33.258Z,101452.72
2022-08-22T15:30:05.033Z,101458.22
2022-08-22T15:32:41.735Z,101459.88
2022-08-22T15:35:15.449Z,101462.09
2022-08-22T15:38:05.400Z,101459.91
2022-08-22T15:40:40.592Z,101457.41
2022-08-22T15:43:34.922Z,101456.03
2022-08-22T15:46:36.517Z,101450.22
2022-08-22T15:49:10.587Z,101446.34
2022-08-22T15:51:50.234Z,101448.84
2022-08-22T15:54:24.414Z,101436.44
2022-08-22T15:56:51.778Z,101442.72
2022-08-22T15:59:53.492Z,101435.63
2022-08-22T16:02:27.875Z,101436.75
2022-08-22T16:05:14.163Z,101426.78
2022-08-22T16:08:02.756Z,101427.34
2022-08-22T16:10:36.299Z,101429.00
2022-08-22T16:13:38.157Z,101424.06
2022-08-22T16:16:25.113Z,101429.28
2022-08-22T16:18:51.486Z,101424.31
2022-08-22T16:21:20.820Z,101422.09
2022-08-22T16:23:50.876Z,101424.03
2022-08-22T16:26:39.439Z,101426.50
2022-08-22T16:29:17.813Z,101421.84
2022-08-22T16:31:44.565Z,101416.06
2022-08-22T16:34:17.117Z,101409.47
2022-08-22T16:37:05.154Z,101404.53
2022-08-22T16:39:37.018Z,101406.75
2022-08-22T16:42:12.398Z,101408.97
2022-08-22T16:44:50.957Z,101405.41
2022-08-22T16:47:21.194Z,101401.78
2022-08-22T16:49:50.553Z,101400.41
2022-08-22T16:52:26.207Z,101408.06
2022-08-22T16:54:54.045Z,101401.41
2022-08-22T16:57:27.334Z,101396.22
2022-08-22T17:00:12.128Z,101399.59
2022-08-22T17:02:56.965Z,101399.00
2022-08-22T17:05:47.932Z,101403.13
2022-08-22T17:08:14.291Z,101395.66
2022-08-22T17:11:02.881Z,101398.69
2022-08-22T17:13:56.912Z,101401.63
2022-08-22T17:16:39.786Z,101401.41
2022-08-22T17:19:18.428Z,101400.56
2022-08-22T17:21:58.794Z,101409.63
2022-08-22T17:25:02.960Z,101408.53
2022-08-22T17:27:46.405Z,101397.81
2022-08-22T17:30:20.193Z,101408.84
2022-08-22T17:33:04.517Z,101404.16
2022-08-22T17:35:43.676Z,101411.59
2022-08-22T17:38:31.220Z,101415.13
2022-08-22T17:41:00.942Z,101410.16
2022-08-22T17:43:52.396Z,101410.97
2022-08-22T17:46:24.850Z,101411.56
2022-08-22T17:49:12.735Z,101417.28
2022-08-22T17:51:51.205Z,101413.72
2022-08-22T17:54:30.030Z,101409.88
2022-08-22T17:57:05.702Z,101414.53
2022-08-22T17:59:52.638Z,101413.41
2022-08-22T18:02:22.834Z,101411.47
2022-08-22T18:05:01.593Z,101412.84
2022-08-22T18:07:45.702Z,101413.31
2022-08-22T18:10:41.525Z,101414.19
2022-08-22T18:13:45.671Z,101413.31
2022-08-22T18:16:24.534Z,101415.25
2022-08-22T18:19:32.836Z,101414.19
2022-08-22T18:22:05.706Z,101413.84
2022-08-22T18:24:46.233Z,101416.00
2022-08-22T18:27:34.741Z,101412.72
2022-08-22T18:30:16.438Z,101411.88
2022-08-22T18:32:53.995Z,101411.88
2022-08-22T18:35:33.861Z,101419.81
2022-08-22T18:38:24.866Z,101427.22
2022-08-22T18:41:33.904Z,101422.53
2022-08-22T18:44:17.772Z,101426.91
2022-08-22T18:46:51.997Z,101431.59
2022-08-22T18:49:19.395Z,101431.59
2022-08-22T18:52:07.010Z,101436.75
2022-08-22T18:54:55.036Z,101434.28
2022-08-22T18:57:59.091Z,101434.84
2022-08-22T19:00:52.307Z,101429.09
2022-08-22T19:03:36.142Z,101438.41
2022-08-22T19:06:26.130Z,101437.59
2022-08-22T19:09:15.214Z,101441.63
2022-08-22T19:12:19.273Z,101444.97
2022-08-22T19:15:23.053Z,101453.19
2022-08-22T19:18:08.503Z,101442.72
2022-08-22T19:20:58.058Z,101455.94
2022-08-22T19:23:33.814Z,101445.50
2022-08-22T19:26:37.140Z,101452.41
2022-08-22T19:29:10.619Z,101455.97
2022-08-22T19:31:39.805Z,101451.81
2022-08-22T19:34:30.797Z,101452.09
2022-08-22T19:37:30.454Z,101444.41
2022-08-22T19:40:08.262Z,101451.31
2022-08-22T19:42:38.987Z,101448.28
2022-08-22T19:45:25.676Z,101439.50
2022-08-22T19:47:59.910Z,101450.50
2022-08-22T19:50:31.639Z,101445.28
2022-08-22T19:53:17.172Z,101449.91
2022-08-22T19:56:11.182Z,101447.69
2022-08-22T19:59:04.342Z,101437.56
2022-08-22T20:01:44.160Z,101446.59
2022-08-22T20:04:28.873Z,101443.00
2022-08-22T20:07:28.432Z,101436.66
2022-08-22T20:09:57.948Z,101436.63
2022-08-22T20:12:58.312Z,101434.38
2022-08-22T20:15:26.899Z,101435.25
2022-08-22T20:20:58.314Z,101429.69
2022-08-22T20:23:30.774Z,101431.59
2022-08-22T20:25:58.581Z,101437.91
2022-08-22T20:28:34.320Z,101428.84
2022-08-22T20:31:05.821Z,101428.84
2022-08-22T20:33:39.638Z,101429.69
2022-08-22T20:36:27.212Z,101433.81
2022-08-22T20:38:59.898Z,101434.94
2022-08-22T20:41:35.612Z,101437.09
2022-08-22T20:44:21.609Z,101427.22
2022-08-22T20:46:53.577Z,101432.69
2022-08-22T20:49:37.610Z,101431.03
2022-08-22T20:52:07.905Z,101434.28
2022-08-22T20:54:38.954Z,101431.56
2022-08-22T20:57:15.985Z,101433.16
2022-08-22T20:59:51.145Z,101436.16
2022-08-22T21:02:26.650Z,101439.16
2022-08-22T21:05:01.840Z,101433.94
2022-08-22T21:07:38.246Z,101422.38
2022-08-22T21:10:39.687Z,101430.38
2022-08-22T21:13:12.643Z,101430.06
2022-08-22T21:15:41.331Z,101425.91
2022-08-22T21:18:10.705Z,101425.09
2022-08-22T21:20:38.274Z,101419.88
2022-08-22T21:23:10.014Z,101425.09
2022-08-22T21:25:59.006Z,101418.44
2022-08-22T21:28:54.122Z,101427.78
2022-08-22T21:31:25.062Z,101426.94
2022-08-22T21:33:53.792Z,101432.44
2022-08-22T21:36:27.463Z,101428.00
2022-08-22T21:39:01.814Z,101424.44
2022-08-22T21:42:02.721Z,101418.13
2022-08-22T21:44:31.903Z,101418.41
2022-08-22T21:47:30.436Z,101419.16
2022-08-22T21:50:12.555Z,101422.75
2022-08-22T21:52:44.743Z,101420.00
2022-08-22T21:55:27.610Z,101417.00
2022-08-22T21:58:08.717Z,101409.03
2022-08-22T22:00:49.718Z,101417.28
2022-08-22T22:03:25.285Z,101413.91
2022-08-22T22:05:56.220Z,101415.00
2022-08-22T22:08:22.686Z,101417.75
2022-08-22T22:10:58.504Z,101423.22
2022-08-22T22:13:27.132Z,101421.56
2022-08-22T22:15:55.678Z,101420.75
2022-08-22T22:18:27.227Z,101416.09
2022-08-22T22:20:54.765Z,101427.06
2022-08-22T22:23:22.291Z,101418.00
2022-08-22T22:25:50.169Z,101418.00
2022-08-22T22:28:28.250Z,101420.16
2022-08-22T22:30:54.698Z,101420.66
2022-08-22T22:33:25.275Z,101425.34
2022-08-22T22:35:54.484Z,101422.84
2022-08-22T22:38:24.041Z,101430.00
2022-08-22T22:40:51.258Z,101424.50
2022-08-22T22:43:17.718Z,101425.00
2022-08-22T22:45:44.128Z,101425.84
2022-08-22T22:48:10.616Z,101428.56
2022-08-22T22:50:44.204Z,101425.84
2022-08-22T22:53:11.554Z,101437.66
2022-08-22T22:55:47.963Z,101436.25
2022-08-22T22:58:27.020Z,101428.56
2022-08-22T23:00:53.504Z,101425.00
2022-08-22T23:03:20.196Z,101426.09
2022-08-22T23:05:46.739Z,101423.34
2022-08-22T23:08:13.137Z,101434.59
2022-08-22T23:10:39.569Z,101433.44
2022-08-22T23:13:06.457Z,101429.03
2022-08-22T23:15:33.096Z,101426.56
2022-08-22T23:17:59.615Z,101428.19
2022-08-22T23:20:26.098Z,101427.38
2022-08-22T23:22:52.553Z,101431.22
2022-08-22T23:25:18.976Z,101427.88
2022-08-22T23:27:48.708Z,101423.50
2022-08-22T23:30:19.118Z,101413.63
2022-08-22T23:32:45.514Z,101420.19
2022-08-22T23:35:11.931Z,101411.88
2022-08-22T23:37:38.484Z,101406.94
2022-08-22T23:40:07.964Z,101399.78
2022-08-22T23:42:34.658Z,101400.88
2022-08-22T23:45:01.068Z,101406.34
2022-08-22T23:47:27.481Z,101409.34
2022-08-22T23:49:53.876Z,101403.06
2022-08-22T23:52:22.191Z,101395.66
2022-08-22T23:54:48.653Z,101397.31
2022-08-22T23:57:20.967Z,101397.31
2022-08-22T23:59:57.651Z,101401.13
